Time;durP1;ratioP1;P1;durP2;ratioP2;P2;SDS_P1;SDS_P2;PMS_P1;PMS_P2;Temp;Humidity;BMP_temperature;BMP_pressure;BME280_temperature;BME280_humidity;BME280_pressure;Samples;Min_cycle;Max_cycle;Signal;HPM_P1;HPM_P2
2021/09/25 00:00:24;;;;;;;12.40;9.13;;;;;;;8.48;69.53;93727.13;5012535;28;20476;-65
2021/09/25 00:02:49;;;;;;;11.68;8.65;;;;;;;8.46;69.58;93734.41;5012582;28;20415;-66
2021/09/25 00:05:15;;;;;;;15.65;10.57;;;;;;;8.45;68.60;93713.66;5012500;28;20037;-65
2021/09/25 00:07:41;;;;;;;15.02;9.93;;;;;;;8.50;68.87;93729.34;5012281;28;20407;-64
2021/09/25 00:10:06;;;;;;;17.90;12.07;;;;;;;8.28;69.75;93730.47;5012305;28;20028;-65
2021/09/25 00:12:32;;;;;;;16.90;9.07;;;;;;;8.53;68.69;93725.53;5012319;28;20472;-65
2021/09/25 00:14:57;;;;;;;23.58;13.30;;;;;;;8.52;69.06;93727.53;5011988;28;20037;-65
2021/09/25 00:17:23;;;;;;;41.28;20.13;;;;;;;8.51;68.88;93730.81;5011754;28;20060;-65
2021/09/25 00:19:48;;;;;;;29.85;17.73;;;;;;;8.46;68.96;93723.41;5012066;28;20057;-64
2021/09/25 00:22:14;;;;;;;23.27;14.15;;;;;;;8.39;69.26;93724.78;5012167;28;20029;-64
2021/09/25 00:24:39;;;;;;;22.88;12.88;;;;;;;8.39;69.22;93724.78;5011725;28;20069;-64
2021/09/25 00:27:05;;;;;;;16.45;10.52;;;;;;;8.35;69.54;93719.59;5011752;28;20606;-64
2021/09/25 00:29:30;;;;;;;16.52;10.48;;;;;;;8.32;69.51;93720.66;5012047;28;20022;-64
2021/09/25 00:31:56;;;;;;;13.95;9.40;;;;;;;8.28;69.75;93719.47;5011667;28;20795;-66
2021/09/25 00:34:21;;;;;;;13.73;8.80;;;;;;;8.20;69.63;93716.59;5011664;28;20022;-66
2021/09/25 00:36:47;;;;;;;12.30;8.18;;;;;;;8.24;69.25;93716.28;5011936;28;20022;-66
2021/09/25 00:39:13;;;;;;;15.40;9.10;;;;;;;8.17;70.06;93717.63;5011931;28;20029;-65
2021/09/25 00:41:39;;;;;;;15.32;9.75;;;;;;;8.25;69.96;93715.00;5011530;28;20388;-66
2021/09/25 00:44:05;;;;;;;14.02;8.48;;;;;;;8.27;69.77;93713.22;5011506;28;20053;-66
2021/09/25 00:46:47;;;;;;;13.07;9.75;;;;;;;8.15;69.47;93705.66;5011454;28;20069;-66
2021/09/25 00:49:20;;;;;;;12.85;10.52;;;;;;;8.07;69.71;93705.56;5011611;28;20089;-66
2021/09/25 00:51:47;;;;;;;16.52;11.18;;;;;;;8.21;69.51;93717.31;5011427;28;20025;-65
2021/09/25 00:54:12;;;;;;;14.93;10.38;;;;;;;8.20;69.66;93719.34;5011356;28;20502;-65
2021/09/25 00:56:39;;;;;;;15.25;10.85;;;;;;;8.22;69.35;93710.56;5011506;28;20024;-65
2021/09/25 00:59:05;;;;;;;15.00;10.27;;;;;;;8.04;69.81;93689.38;5011610;28;20025;-65
2021/09/25 01:01:30;;;;;;;11.20;7.20;;;;;;;7.88;70.58;93709.66;4994044;28;20533;-65
2021/09/25 01:03:56;;;;;;;9.40;7.13;;;;;;;7.78;70.30;93709.28;4994020;28;20101;-65
2021/09/25 01:06:21;;;;;;;10.68;6.55;;;;;;;7.45;71.75;93713.28;5010952;28;20033;-65
2021/09/25 01:08:47;;;;;;;14.73;9.25;;;;;;;7.33;71.70;93711.97;5011067;28;20048;-63
2021/09/25 01:11:12;;;;;;;12.55;7.60;;;;;;;7.48;71.71;93704.03;5011160;28;20018;-63
2021/09/25 01:13:38;;;;;;;11.35;8.02;;;;;;;7.67;70.97;93712.22;5010177;28;20030;-63
2021/09/25 01:16:04;;;;;;;11.95;6.63;;;;;;;7.65;70.70;93706.50;5028719;28;20434;-63
2021/09/25 01:18:29;;;;;;;9.43;6.53;;;;;;;7.64;70.55;93710.53;5030818;28;20038;-63
2021/09/25 01:21:00;;;;;;;9.00;6.47;;;;;;;7.62;70.71;93710.31;5030939;28;20021;-63
2021/09/25 01:23:25;;;;;;;7.75;5.68;;;;;;;7.73;70.59;93712.88;5021136;28;20025;-63
2021/09/25 01:25:51;;;;;;;11.80;6.95;;;;;;;7.75;70.34;93706.88;5011443;28;20399;-63
2021/09/25 01:28:16;;;;;;;9.52;5.70;;;;;;;7.63;70.52;93711.78;5011042;28;20499;-65
2021/09/25 01:30:42;;;;;;;8.85;5.90;;;;;;;7.57;70.08;93709.13;5010789;28;20037;-64
2021/09/25 01:33:07;;;;;;;10.27;6.20;;;;;;;7.26;70.71;93709.81;5011042;28;20105;-65
2021/09/25 01:35:33;;;;;;;8.77;6.55;;;;;;;7.14;71.90;93707.75;5011049;28;20022;-65
2021/09/25 01:37:58;;;;;;;14.88;8.48;;;;;;;7.05;71.96;93721.84;5010924;28;20093;-65
2021/09/25 01:40:24;;;;;;;12.15;7.72;;;;;;;7.24;72.01;93717.84;5010826;28;20014;-64
2021/09/25 01:42:50;;;;;;;10.60;7.32;;;;;;;7.29;71.76;93725.28;5010620;28;20022;-65
2021/09/25 01:45:16;;;;;;;15.27;8.63;;;;;;;7.34;71.19;93729.94;5010478;28;20022;-65
2021/09/25 01:47:41;;;;;;;11.60;7.85;;;;;;;7.39;71.31;93720.88;5009819;28;20037;-63
2021/09/25 01:50:11;;;;;;;15.25;8.38;;;;;;;7.45;70.78;93727.03;5009980;28;20050;-64
2021/09/25 01:52:36;;;;;;;16.13;9.68;;;;;;;6.94;71.92;93719.25;5010392;28;20618;-63
2021/09/25 01:55:03;;;;;;;14.32;9.00;;;;;;;7.08;71.96;93724.28;5010443;28;20112;-63
2021/09/25 01:57:29;;;;;;;15.85;8.20;;;;;;;7.26;71.46;93718.06;5009704;28;20017;-64
2021/09/25 01:59:54;;;;;;;20.60;10.90;;;;;;;7.28;70.86;93726.53;5010367;28;20022;-63
2021/09/25 02:02:20;;;;;;;29.60;15.57;;;;;;;7.27;70.77;93722.31;5010170;28;20362;-64
2021/09/25 02:04:48;;;;;;;31.50;16.45;;;;;;;7.22;71.37;93723.13;4993057;28;20030;-64
2021/09/25 02:07:18;;;;;;;17.60;10.93;;;;;;;7.19;71.26;93729.66;5010351;28;20068;-64
2021/09/25 02:09:44;;;;;;;18.90;9.52;;;;;;;7.27;71.07;93725.06;5010191;28;20045;-64
2021/09/25 02:12:10;;;;;;;23.95;11.30;;;;;;;7.30;71.04;93728.75;5010396;28;20451;-64
2021/09/25 02:14:36;;;;;;;27.77;12.77;;;;;;;7.22;71.22;93725.13;5010113;28;20041;-64
2021/09/25 02:17:02;;;;;;;26.33;13.10;;;;;;;7.35;71.10;93733.44;5010232;28;20049;-64
2021/09/25 02:19:28;;;;;;;18.45;10.90;;;;;;;7.04;72.06;93740.31;5010371;28;20022;-64
2021/09/25 02:21:53;;;;;;;18.90;10.52;;;;;;;7.15;71.89;93742.94;5010459;28;20022;-64
2021/09/25 02:24:19;;;;;;;14.57;8.80;;;;;;;7.23;71.68;93745.84;5009737;28;20462;-64
2021/09/25 02:26:44;;;;;;;27.73;14.50;;;;;;;7.22;71.61;93747.84;5010424;28;20025;-64
2021/09/25 02:29:10;;;;;;;12.68;6.75;;;;;;;7.18;71.40;93725.44;5010357;28;20049;-65
2021/09/25 02:31:36;;;;;;;7.50;5.45;;;;;;;7.21;71.64;93735.34;5010024;28;20022;-65
2021/09/25 02:34:01;;;;;;;10.88;6.15;;;;;;;7.35;72.15;93747.16;5010100;28;20026;-66
2021/09/25 02:36:27;;;;;;;43.63;9.60;;;;;;;7.29;71.99;93752.00;5010158;28;20017;-64
2021/09/25 02:38:52;;;;;;;8.95;6.60;;;;;;;7.04;72.72;93748.56;5010033;28;20065;-64
2021/09/25 02:41:18;;;;;;;13.35;7.00;;;;;;;7.09;73.43;93758.75;4992470;28;20025;-64
2021/09/25 02:43:43;;;;;;;12.73;8.73;;;;;;;7.18;72.68;93754.88;5010311;28;20026;-65
2021/09/25 02:46:09;;;;;;;16.15;9.32;;;;;;;7.29;72.45;93762.97;5010101;28;20403;-65
2021/09/25 02:48:34;;;;;;;9.07;6.32;;;;;;;6.77;72.70;93766.13;5009899;28;20036;-65
2021/09/25 02:51:37;;;;;;;12.48;8.52;;;;;;;6.78;73.39;93771.09;5008489;28;20454;-65
2021/09/25 02:54:02;;;;;;;17.42;11.05;;;;;;;6.82;73.17;93771.53;5009377;28;20076;-65
2021/09/25 02:56:28;;;;;;;16.27;9.57;;;;;;;6.98;73.31;93777.34;5009997;28;20499;-64
2021/09/25 02:58:53;;;;;;;10.88;7.20;;;;;;;6.98;73.25;93780.09;5009736;28;20040;-65
2021/09/25 03:01:19;;;;;;;15.80;8.30;;;;;;;6.98;73.64;93780.84;5009975;28;20014;-64
2021/09/25 03:03:44;;;;;;;10.93;6.95;;;;;;;7.08;73.65;93776.47;5009655;28;20038;-64
2021/09/25 03:06:09;;;;;;;13.63;7.97;;;;;;;7.23;73.30;93790.53;5028102;28;20033;-64
2021/09/25 03:08:35;;;;;;;12.75;7.95;;;;;;;7.14;72.77;93790.88;5016845;28;20022;-64
2021/09/25 03:11:00;;;;;;;18.02;9.70;;;;;;;7.18;71.48;93794.06;5012959;28;20614;-64
2021/09/25 03:13:26;;;;;;;16.17;10.23;;;;;;;7.14;71.28;93795.63;5013233;28;20029;-65
2021/09/25 03:15:51;;;;;;;16.52;11.43;;;;;;;6.82;72.46;93781.78;5013610;28;20017;-65
2021/09/25 03:18:17;;;;;;;19.95;12.60;;;;;;;7.11;71.51;93802.91;5013446;28;20384;-65
2021/09/25 03:20:42;;;;;;;18.95;11.90;;;;;;;7.15;72.09;93811.56;5013536;28;20483;-65
2021/09/25 03:23:08;;;;;;;17.88;10.40;;;;;;;7.15;71.69;93810.81;5012479;28;20014;-65
2021/09/25 03:25:33;;;;;;;17.55;10.73;;;;;;;7.14;71.52;93810.09;5013039;28;20025;-65
2021/09/25 03:27:59;;;;;;;22.60;12.65;;;;;;;7.05;72.25;93817.94;5013264;28;20556;-65
2021/09/25 03:30:24;;;;;;;23.02;12.27;;;;;;;7.00;72.02;93816.75;5013046;28;20030;-65
2021/09/25 03:32:50;;;;;;;28.58;14.65;;;;;;;7.00;72.21;93819.50;5013107;28;20411;-65
2021/09/25 03:35:15;;;;;;;31.17;16.10;;;;;;;6.84;71.43;93812.94;5013187;28;20014;-65
2021/09/25 03:37:41;;;;;;;38.83;22.75;;;;;;;6.99;72.42;93839.97;5012764;28;20045;-65
2021/09/25 03:40:08;;;;;;;45.80;17.42;;;;;;;6.92;72.16;93828.81;5012824;28;20072;-66
2021/09/25 03:42:33;;;;;;;20.85;11.02;;;;;;;6.87;72.53;93824.88;5012966;28;20101;-66
2021/09/25 03:44:59;;;;;;;19.65;10.10;;;;;;;6.79;73.18;93837.69;5012646;28;20431;-65
2021/09/25 03:47:24;;;;;;;14.40;9.20;;;;;;;6.88;73.21;93831.88;5012682;28;20057;-66
2021/09/25 03:49:50;;;;;;;12.30;8.45;;;;;;;6.93;72.94;93825.56;5012566;28;20132;-66
2021/09/25 03:52:15;;;;;;;17.77;11.15;;;;;;;6.97;73.52;93834.25;5012685;28;20483;-65
2021/09/25 03:54:41;;;;;;;17.55;11.00;;;;;;;6.89;73.57;93833.34;5012475;28;20431;-65
2021/09/25 03:57:06;;;;;;;18.45;12.15;;;;;;;6.93;73.90;93847.50;5012714;28;20153;-65
2021/09/25 03:59:32;;;;;;;20.67;11.00;;;;;;;6.93;72.81;93844.78;5012664;28;20384;-65
2021/09/25 04:01:57;;;;;;;12.98;8.13;;;;;;;6.41;72.72;93845.03;5021023;28;20101;-65
2021/09/25 04:04:23;;;;;;;12.40;7.53;;;;;;;6.60;73.17;93845.88;5031990;28;20026;-66
2021/09/25 04:06:48;;;;;;;30.42;15.30;;;;;;;6.69;73.36;93850.28;5032334;28;20026;-65
2021/09/25 04:09:14;;;;;;;17.73;11.25;;;;;;;6.75;73.77;93840.75;5032027;28;20028;-65
2021/09/25 04:11:39;;;;;;;17.60;9.10;;;;;;;6.86;73.78;93856.34;5031969;28;20036;-65
2021/09/25 04:14:05;;;;;;;15.88;8.27;;;;;;;6.80;73.46;93850.91;5031880;28;20048;-65
2021/09/25 04:16:31;;;;;;;14.00;8.43;;;;;;;6.87;74.06;93866.78;5031791;28;20032;-65
2021/09/25 04:18:57;;;;;;;10.20;6.68;;;;;;;6.92;73.93;93865.25;5031897;28;20025;-64
2021/09/25 04:21:23;;;;;;;8.98;6.45;;;;;;;6.97;73.93;93866.47;5031426;28;20024;-64
2021/09/25 04:23:48;;;;;;;6.70;4.97;;;;;;;7.06;74.30;93864.09;5031506;28;20033;-66
2021/09/25 04:26:15;;;;;;;8.32;5.38;;;;;;;7.02;74.98;93871.16;5031542;28;20025;-65
2021/09/25 04:28:41;;;;;;;15.00;7.30;;;;;;;6.97;74.25;93877.44;5031878;28;20112;-65
2021/09/25 04:31:07;;;;;;;22.63;8.63;;;;;;;6.97;73.55;93877.44;5031619;28;20120;-65
2021/09/25 04:33:32;;;;;;;16.33;8.52;;;;;;;6.78;72.79;93885.59;5031562;28;20052;-66
2021/09/25 04:35:58;;;;;;;61.75;18.90;;;;;;;6.43;74.39;93889.13;5031489;28;20029;-65
2021/09/25 04:38:23;;;;;;;62.35;20.67;;;;;;;6.79;73.80;93881.59;5031689;28;20079;-65
2021/09/25 04:40:49;;;;;;;52.08;21.25;;;;;;;6.97;73.29;93886.44;5031730;28;20411;-65
2021/09/25 04:43:14;;;;;;;65.00;22.27;;;;;;;6.76;73.19;93879.88;5031444;28;20402;-66
2021/09/25 04:45:40;;;;;;;54.70;20.92;;;;;;;6.93;73.12;93887.97;5031583;28;20053;-65
2021/09/25 04:48:05;;;;;;;42.28;16.27;;;;;;;6.98;73.68;93896.13;5031183;28;20091;-65
2021/09/25 04:50:31;;;;;;;22.58;10.68;;;;;;;7.01;73.79;93894.38;5030959;28;20041;-66
2021/09/25 04:53:12;;;;;;;20.40;10.55;;;;;;;7.08;74.42;93900.00;5031482;28;20029;-66
2021/09/25 04:55:37;;;;;;;39.45;16.25;;;;;;;6.61;73.66;93874.03;5031384;28;20070;-65
2021/09/25 04:58:03;;;;;;;63.55;25.38;;;;;;;6.73;73.56;93903.63;5015698;28;20080;-66
2021/09/25 05:00:29;;;;;;;69.53;25.52;;;;;;;6.82;74.03;93910.78;5011543;28;20160;-66
2021/09/25 05:02:54;;;;;;;57.22;25.05;;;;;;;6.81;73.82;93904.53;5011439;28;20604;-66
2021/09/25 05:05:20;;;;;;;48.50;22.05;;;;;;;6.84;72.79;93911.00;5011551;28;20063;-64
2021/09/25 05:07:46;;;;;;;57.10;22.05;;;;;;;6.99;73.45;93914.09;5011614;28;20033;-66
2021/09/25 05:10:12;;;;;;;79.07;23.10;;;;;;;7.01;73.42;93917.06;5011214;28;20100;-65
2021/09/25 05:12:37;;;;;;;52.42;22.33;;;;;;;7.03;73.58;93917.31;5011174;28;20386;-65
2021/09/25 05:15:03;;;;;;;71.88;23.58;;;;;;;7.05;74.03;93925.00;5010976;28;20036;-65
2021/09/25 05:17:29;;;;;;;50.70;21.77;;;;;;;7.18;73.28;93919.63;5010920;28;20022;-66
2021/09/25 05:19:54;;;;;;;35.35;17.15;;;;;;;7.21;73.72;93924.13;5011521;28;20025;-64
2021/09/25 05:22:19;;;;;;;45.42;21.88;;;;;;;7.36;73.41;93932.69;5010644;28;20084;-65
2021/09/25 05:24:45;;;;;;;37.03;20.92;;;;;;;7.33;73.89;93919.97;5021818;28;20022;-65
2021/09/25 05:27:12;;;;;;;37.92;20.15;;;;;;;7.30;73.54;93912.75;5010296;28;20022;-64
2021/09/25 05:29:38;;;;;;;42.70;21.38;;;;;;;7.18;73.46;93919.63;5009374;28;20034;-65
2021/09/25 05:32:05;;;;;;;34.35;18.33;;;;;;;7.32;73.98;93918.50;4990958;28;20030;-65
2021/09/25 05:34:30;;;;;;;33.50;17.60;;;;;;;7.53;73.72;93939.50;5010876;28;20104;-65
2021/09/25 05:36:57;;;;;;;33.72;18.77;;;;;;;7.71;73.91;93937.28;5011015;28;20028;-65
2021/09/25 05:39:22;;;;;;;70.60;20.02;;;;;;;7.71;74.41;93949.00;5010380;28;20057;-65
2021/09/25 05:41:48;;;;;;;20.88;13.98;;;;;;;7.80;75.26;93945.16;5009648;28;20021;-65
2021/09/25 05:44:13;;;;;;;42.75;17.95;;;;;;;8.01;74.95;93943.41;5009785;28;20030;-65
2021/09/25 05:46:39;;;;;;;62.38;30.63;;;;;;;8.13;74.76;93939.22;5010179;28;20057;-65
2021/09/25 05:49:04;;;;;;;49.38;25.02;;;;;;;8.28;75.00;93937.53;5009846;28;20467;-65
2021/09/25 05:51:30;;;;;;;98.53;36.53;;;;;;;8.44;75.38;93946.06;5008890;28;20029;-65
2021/09/25 05:53:55;;;;;;;117.20;47.40;;;;;;;8.55;74.85;93951.41;5020597;28;20422;-65
2021/09/25 05:56:21;;;;;;;121.40;55.58;;;;;;;8.62;76.02;93945.31;5028218;28;20033;-66
2021/09/25 05:58:46;;;;;;;101.32;42.53;;;;;;;8.88;76.04;93945.38;5023768;28;20029;-66
2021/09/25 06:01:12;;;;;;;84.10;39.47;;;;;;;9.10;75.20;93945.00;5008831;28;20026;-66
2021/09/25 06:03:37;;;;;;;57.85;28.90;;;;;;;9.39;74.56;93951.50;5009538;28;20026;-66
2021/09/25 06:06:03;;;;;;;69.40;31.70;;;;;;;9.59;74.04;93951.63;5010522;28;20029;-66
2021/09/25 06:08:28;;;;;;;51.85;27.20;;;;;;;9.88;73.06;93950.53;5010690;28;20038;-65
2021/09/25 06:10:54;;;;;;;49.58;25.58;;;;;;;10.39;72.30;93956.53;5010414;28;20060;-66
2021/09/25 06:13:19;;;;;;;38.63;17.17;;;;;;;11.24;70.38;93951.25;5009668;28;20022;-66
2021/09/25 06:15:45;;;;;;;20.33;10.45;;;;;;;11.93;69.22;93955.97;5007587;28;20052;-66
2021/09/25 06:18:10;;;;;;;34.30;11.57;;;;;;;12.39;67.50;93951.41;5009725;28;20511;-66
2021/09/25 06:20:36;;;;;;;38.47;16.73;;;;;;;12.87;65.62;93953.16;5009466;28;20025;-66
2021/09/25 06:23:03;;;;;;;34.83;17.95;;;;;;;13.03;64.84;93954.69;5008952;28;20411;-66
2021/09/25 06:25:28;;;;;;;43.25;33.55;;;;;;;13.38;63.22;93953.06;5009124;28;20018;-67
2021/09/25 06:27:53;;;;;;;27.90;18.10;;;;;;;13.85;61.51;93955.22;5009445;28;20068;-66
2021/09/25 06:30:19;;;;;;;32.58;18.65;;;;;;;14.54;60.37;93954.47;5004055;28;20065;-66
2021/09/25 06:32:45;;;;;;;10.32;6.72;;;;;;;15.49;57.47;93949.47;5000296;28;20017;-66
2021/09/25 06:35:11;;;;;;;30.67;6.50;;;;;;;16.53;55.06;93943.41;4997333;28;20014;-66
2021/09/25 06:37:37;;;;;;;7.53;5.03;;;;;;;17.25;51.64;93959.53;5000063;28;20026;-66
2021/09/25 06:40:05;;;;;;;11.52;4.80;;;;;;;17.65;48.70;93941.66;4998027;28;20033;-66
2021/09/25 06:42:30;;;;;;;4.43;3.30;;;;;;;17.65;47.96;93953.53;4999167;28;20045;-67
2021/09/25 06:44:56;;;;;;;6.65;3.60;;;;;;;17.58;48.58;93954.41;4992556;28;20026;-66
2021/09/25 06:47:21;;;;;;;6.60;3.83;;;;;;;17.82;46.82;93959.03;5001722;28;20029;-67
2021/09/25 06:49:47;;;;;;;6.68;3.40;;;;;;;18.40;47.12;93959.13;5006281;28;20042;-66
2021/09/25 06:52:12;;;;;;;5.63;3.13;;;;;;;19.29;44.32;93957.84;5002285;28;20022;-67
2021/09/25 06:54:38;;;;;;;4.82;3.25;;;;;;;20.86;41.09;93960.78;5003883;28;20163;-67
2021/09/25 06:57:05;;;;;;;5.00;3.05;;;;;;;22.28;37.33;93961.84;5001912;28;20019;-67
2021/09/25 06:59:31;;;;;;;4.43;3.20;;;;;;;23.83;35.15;93965.69;5002919;28;20014;-68
2021/09/25 07:01:56;;;;;;;5.57;2.72;;;;;;;25.22;32.66;93960.75;5003295;28;20034;-68
2021/09/25 07:04:22;;;;;;;3.17;2.72;;;;;;;25.13;30.51;93970.94;5004201;28;20022;-68
2021/09/25 07:06:47;;;;;;;4.72;3.90;;;;;;;25.14;30.72;93961.09;5000877;28;20081;-67
2021/09/25 07:09:13;;;;;;;4.40;3.20;;;;;;;24.50;30.30;93950.13;5001588;28;20026;-67
2021/09/25 07:11:38;;;;;;;4.82;3.95;;;;;;;23.65;32.58;93942.16;5002418;28;20077;-68
2021/09/25 07:14:04;;;;;;;5.13;3.85;;;;;;;24.89;31.84;93969.75;5002717;28;20029;-67
2021/09/25 07:16:29;;;;;;;3.65;3.05;;;;;;;25.98;30.42;93969.25;5001419;28;20040;-67
2021/09/25 07:18:55;;;;;;;5.85;2.50;;;;;;;26.23;29.10;93974.66;5003369;28;20038;-67
2021/09/25 07:21:21;;;;;;;4.60;3.22;;;;;;;27.26;26.57;93957.09;5001948;28;20014;-68
2021/09/25 07:23:46;;;;;;;6.53;2.95;;;;;;;28.62;24.66;93955.19;4983108;28;20025;-68
2021/09/25 07:26:12;;;;;;;3.92;3.10;;;;;;;29.78;23.10;93966.13;5002754;28;20018;-67
2021/09/25 07:28:38;;;;;;;11.48;4.18;;;;;;;31.13;22.46;93976.44;5001629;28;20030;-68
2021/09/25 07:31:05;;;;;;;3.83;2.63;;;;;;;32.18;20.89;93964.69;5001668;28;20057;-69
2021/09/25 07:33:31;;;;;;;5.22;2.65;;;;;;;30.29;21.63;93962.66;5002066;28;20026;-68
2021/09/25 07:35:57;;;;;;;4.15;3.38;;;;;;;29.64;23.74;93949.34;5000823;28;20026;-68
2021/09/25 07:38:22;;;;;;;4.60;2.47;;;;;;;30.94;21.84;93963.09;5000639;28;20041;-68
2021/09/25 07:40:48;;;;;;;3.30;2.97;;;;;;;32.45;20.29;93969.53;5002019;28;20014;-69
2021/09/25 07:43:13;;;;;;;2.50;2.30;;;;;;;33.28;19.51;93977.59;5002556;28;20106;-68
2021/09/25 07:45:39;;;;;;;3.45;2.67;;;;;;;33.95;17.54;93970.06;5028743;22;20493;-47
2021/09/25 07:48:05;;;;;;;11.23;4.70;;;;;;;34.59;18.00;93958.81;5011625;28;20153;-47
2021/09/25 07:50:31;;;;;;;13.50;3.97;;;;;;;34.46;17.41;93963.63;5012038;28;20511;-54
2021/09/25 07:52:56;;;;;;;30.08;5.82;;;;;;;34.87;16.67;93953.41;5012105;28;20097;-50
2021/09/25 07:55:23;;;;;;;4.50;3.83;;;;;;;35.39;16.65;93971.16;5011160;28;20022;-50
2021/09/25 07:57:49;;;;;;;5.00;2.67;;;;;;;35.36;16.29;93963.22;5012054;28;20025;-52
2021/09/25 08:00:15;;;;;;;2.67;2.00;;;;;;;35.51;16.73;93971.28;5012366;28;20105;-49
2021/09/25 08:02:41;;;;;;;4.57;2.90;;;;;;;35.41;16.04;93956.81;5012748;28;20104;-51
2021/09/25 08:05:08;;;;;;;4.80;3.17;;;;;;;35.52;16.04;93949.03;5012756;28;20479;-49
2021/09/25 08:07:33;;;;;;;5.93;3.15;;;;;;;35.66;16.01;93952.00;5012607;28;20025;-50
2021/09/25 08:09:59;;;;;;;7.90;5.82;;;;;;;35.03;16.48;93959.31;5012320;28;20026;-50
2021/09/25 08:12:25;;;;;;;59.35;8.93;;;;;;;35.37;16.12;93933.78;5012161;28;20030;-52
2021/09/25 08:14:51;;;;;;;20.42;3.10;;;;;;;36.44;15.83;93951.84;5012552;28;20033;-52
2021/09/25 08:17:16;;;;;;;3.25;2.20;;;;;;;35.88;15.56;93957.94;5012173;28;20076;-51
2021/09/25 08:19:41;;;;;;;5.47;3.58;;;;;;;35.87;16.25;93958.63;5012352;28;20025;-49
2021/09/25 08:22:07;;;;;;;3.78;3.33;;;;;;;36.21;15.26;93959.59;5012261;28;20491;-51
2021/09/25 08:24:32;;;;;;;5.15;4.65;;;;;;;36.00;15.93;93966.66;5011654;28;20022;-50
2021/09/25 08:26:58;;;;;;;25.63;4.35;;;;;;;34.91;17.28;93948.41;5012083;28;20028;-48
2021/09/25 08:29:23;;;;;;;2.90;2.60;;;;;;;34.90;17.71;93966.31;5012263;28;20024;-49
2021/09/25 08:31:49;;;;;;;5.85;2.25;;;;;;;32.25;18.95;93954.81;5012110;28;20044;-50
2021/09/25 08:34:15;;;;;;;2.40;2.17;;;;;;;32.47;19.44;93965.97;5011805;28;20537;-49
2021/09/25 08:36:42;;;;;;;3.22;2.90;;;;;;;33.19;19.54;93969.53;5011853;28;20113;-50
2021/09/25 08:39:08;;;;;;;2.85;2.42;;;;;;;30.61;21.77;93970.03;5011772;28;20030;-48
2021/09/25 08:41:33;;;;;;;3.53;2.58;;;;;;;30.30;22.60;93962.00;5011543;28;20029;-48
2021/09/25 08:43:59;;;;;;;3.65;2.63;;;;;;;31.08;21.49;93966.31;5011716;28;20100;-52
2021/09/25 08:46:24;;;;;;;3.83;2.80;;;;;;;32.29;20.62;93963.47;5011571;28;20033;-50
2021/09/25 08:48:50;;;;;;;4.88;2.88;;;;;;;31.41;21.14;93971.44;5011687;28;20491;-50
2021/09/25 08:51:15;;;;;;;6.93;3.47;;;;;;;28.31;25.24;93973.22;5011823;28;20049;-48
2021/09/25 08:53:41;;;;;;;6.15;3.50;;;;;;;30.50;23.89;93974.00;5011485;28;20406;-52
2021/09/25 08:56:06;;;;;;;3.60;2.88;;;;;;;31.65;21.49;93964.88;5011426;28;20018;-49
2021/09/25 08:58:32;;;;;;;5.72;3.60;;;;;;;30.68;22.14;93962.38;5011578;28;20037;-52
2021/09/25 09:00:57;;;;;;;33.05;4.85;;;;;;;30.39;23.81;93980.06;5011408;28;20113;-52
2021/09/25 09:03:38;;;;;;;9.35;3.00;;;;;;;32.50;21.07;93956.78;5011679;28;20088;-54
2021/09/25 09:06:12;;;;;;;4.95;4.45;;;;;;;33.40;19.61;93974.19;5011386;28;20033;-50
2021/09/25 09:08:39;;;;;;;5.43;3.03;;;;;;;32.80;19.54;93956.66;4993113;28;20037;-50
2021/09/25 09:11:06;;;;;;;4.22;3.53;;;;;;;33.72;19.10;93971.91;4993563;28;20066;-54
2021/09/25 09:13:33;;;;;;;3.30;2.97;;;;;;;34.23;19.38;93970.50;5011425;28;20101;-54
2021/09/25 09:16:02;;;;;;;6.90;2.60;;;;;;;34.65;18.26;93956.00;5011524;28;20026;-54
2021/09/25 09:18:29;;;;;;;61.83;5.45;;;;;;;35.02;18.64;93966.50;5011359;28;20034;-54
2021/09/25 09:21:13;;;;;;;6.93;2.28;;;;;;;36.32;16.68;93966.13;5011372;28;20458;-50
2021/09/25 09:23:48;;;;;;;5.07;2.22;;;;;;;36.89;15.92;93973.63;5010637;28;20032;-52
2021/09/25 09:26:16;;;;;;;3.33;2.50;;;;;;;36.11;16.82;93982.53;5011178;28;20088;-53
2021/09/25 09:28:43;;;;;;;4.82;2.40;;;;;;;35.45;16.62;93979.84;5011107;28;20415;-54
2021/09/25 09:31:10;;;;;;;2.67;2.13;;;;;;;34.95;17.68;93980.03;5010671;28;20673;-55
2021/09/25 09:33:41;;;;;;;2.50;1.97;;;;;;;34.95;18.09;93964.94;5008076;28;20033;-53
2021/09/25 09:36:21;;;;;;;2.42;2.17;;;;;;;34.98;17.53;93964.25;5008636;28;20103;-51
2021/09/25 09:38:52;;;;;;;4.50;2.45;;;;;;;33.87;18.95;93967.84;5008513;28;20029;-50
2021/09/25 09:41:20;;;;;;;5.45;3.47;;;;;;;35.31;18.06;93982.56;5008494;28;20032;-53
2021/09/25 09:43:46;;;;;;;10.60;3.17;;;;;;;35.94;17.68;93991.72;5008216;28;20041;-53
2021/09/25 09:46:12;;;;;;;5.07;2.35;;;;;;;35.76;17.59;93984.41;5008275;28;20415;-52
2021/09/25 09:48:37;;;;;;;4.70;4.05;;;;;;;35.78;17.18;93990.19;5008490;28;20030;-51
2021/09/25 09:51:03;;;;;;;2.90;2.38;;;;;;;34.76;17.55;93989.13;5008486;28;20056;-49
2021/09/25 09:53:45;;;;;;;50.38;4.90;;;;;;;34.82;18.74;93977.72;5008436;28;20068;-53
2021/09/25 09:56:17;;;;;;;42.20;23.15;;;;;;;35.44;17.41;93986.25;5008335;28;20542;-52
2021/09/25 09:58:42;;;;;;;6.32;2.50;;;;;;;36.17;17.23;93984.75;5008310;28;20033;-54
2021/09/25 10:01:08;;;;;;;8.57;6.63;;;;;;;35.88;17.29;93977.31;5007761;28;20032;-51
2021/09/25 10:03:34;;;;;;;12.55;3.17;;;;;;;34.82;18.42;93969.13;4993224;28;20550;-53
2021/09/25 10:05:59;;;;;;;3.60;2.33;;;;;;;34.33;19.03;93976.34;5010779;28;20025;-48
2021/09/25 10:08:26;;;;;;;4.70;2.53;;;;;;;32.94;19.84;93979.06;5010412;28;20038;-49
2021/09/25 10:10:51;;;;;;;3.00;2.75;;;;;;;33.21;20.48;93981.03;5010595;28;20030;-51
2021/09/25 10:13:17;;;;;;;5.70;2.30;;;;;;;34.99;18.78;93976.47;5010616;28;20084;-48
2021/09/25 10:15:43;;;;;;;2.70;2.20;;;;;;;35.77;17.58;93979.41;5010310;28;20068;-50
2021/09/25 10:18:08;;;;;;;6.28;2.47;;;;;;;35.40;17.43;93966.13;5011000;28;20029;-51
2021/09/25 10:20:34;;;;;;;2.80;2.25;;;;;;;33.74;20.08;93974.06;5014639;28;20490;-53
2021/09/25 10:23:00;;;;;;;3.83;2.65;;;;;;;32.35;21.31;93971.44;4996422;28;20670;-53
2021/09/25 10:25:25;;;;;;;6.32;2.67;;;;;;;32.79;20.99;93963.78;5011843;28;20145;-52
2021/09/25 10:27:51;;;;;;;4.10;2.60;;;;;;;33.60;20.16;93960.25;5029641;28;20487;-53
2021/09/25 10:30:16;;;;;;;3.13;2.40;;;;;;;33.37;20.48;93973.44;5014339;28;20030;-52
2021/09/25 10:32:43;;;;;;;3.30;2.80;;;;;;;33.84;19.01;93977.81;5014129;28;20068;-50
2021/09/25 10:35:08;;;;;;;2.55;2.35;;;;;;;34.86;19.00;93975.63;5014425;28;20030;-50
2021/09/25 10:37:45;;;;;;;27.55;3.65;;;;;;;34.56;19.02;93974.53;5013876;28;20118;-50
2021/09/25 10:40:14;;;;;;;5.35;2.50;;;;;;;35.40;17.27;93963.25;5014036;28;20069;-51
2021/09/25 10:42:44;;;;;;;;;;;;;;;35.15;17.44;93968.03;5014848;28;20105;-51
2021/09/25 10:45:21;;;;;;;2.70;2.50;;;;;;;34.43;18.35;93967.91;5013926;28;20446;-51
2021/09/25 10:48:05;;;;;;;5.40;2.42;;;;;;;34.65;19.55;93961.75;5014224;28;20084;-52
2021/09/25 10:50:32;;;;;;;4.35;2.95;;;;;;;34.76;19.28;93954.72;4994098;28;20050;-49
2021/09/25 10:53:14;;;;;;;4.53;2.53;;;;;;;35.00;18.74;93957.84;4976855;28;20109;-48
2021/09/25 10:55:41;;;;;;;3.72;2.53;;;;;;;34.58;19.75;93951.63;4994407;28;20060;-52
2021/09/25 10:58:24;;;;;;;6.05;3.17;;;;;;;34.64;19.00;93952.41;4994356;28;20410;-53
2021/09/25 11:01:06;;;;;;;2.63;2.20;;;;;;;34.79;19.39;93947.56;4994389;28;20081;-52
2021/09/25 11:03:41;;;;;;;3.30;2.25;;;;;;;34.73;19.59;93950.34;4994050;28;20022;-51
2021/09/25 11:06:19;;;;;;;9.77;2.33;;;;;;;34.17;19.28;93950.38;4993894;28;20026;-49
2021/09/25 11:09:03;;;;;;;2.60;2.40;;;;;;;32.92;19.80;93939.00;4993870;28;20038;-53
2021/09/25 11:11:38;;;;;;;4.03;2.33;;;;;;;31.80;22.19;93941.66;4994115;28;20092;-52
2021/09/25 11:14:09;;;;;;;3.58;2.25;;;;;;;32.06;22.60;93930.13;4993938;28;20062;-51
2021/09/25 11:16:58;;;;;;;3.60;2.10;;;;;;;32.46;21.81;93933.81;4993750;28;20034;-52
2021/09/25 11:19:26;;;;;;;10.93;2.63;;;;;;;33.01;21.37;93929.88;4993745;28;20029;-52
2021/09/25 11:22:10;;;;;;;4.03;2.72;;;;;;;33.31;21.20;93938.97;4993971;28;20026;-52
2021/09/25 11:24:48;;;;;;;15.32;3.42;;;;;;;33.61;20.64;93928.03;5010731;28;20507;-52
2021/09/25 11:27:22;;;;;;;2.92;2.10;;;;;;;33.97;20.37;93924.25;5013455;28;20065;-53